Time;durP1;ratioP1;P1;durP2;ratioP2;P2;SDS_P1;SDS_P2;PMS_P1;PMS_P2;Temp;Humidity;BMP_temperature;BMP_pressure;BME280_temperature;BME280_humidity;BME280_pressure;Samples;Min_cycle;Max_cycle;Signal;HPM_P1;HPM_P2
2021/10/19 00:02:00;;;;;;;0.75;0.30;;;;;;;;;;4994406;28;20076;-86
2021/10/19 00:04:25;;;;;;;1.05;0.98;;;;;;;;;;4994599;28;20034;-86
2021/10/19 00:06:50;;;;;;;0.10;0.10;;;;;;;;;;4994560;28;20355;-86
2021/10/19 00:09:16;;;;;;;0.43;0.43;;;;;;;;;;4994293;28;20041;-86
2021/10/19 00:11:41;;;;;;;1.45;0.88;;;;;;;;;;4994040;28;20034;-86
2021/10/19 00:14:07;;;;;;;0.00;0.00;;;;;;;;;;4994422;28;20105;-84
2021/10/19 00:16:32;;;;;;;0.95;0.88;;;;;;;;;;4994367;28;20109;-85
2021/10/19 00:18:57;;;;;;;0.45;0.45;;;;;;;;;;4976569;28;20422;-86
2021/10/19 00:21:22;;;;;;;0.70;0.55;;;;;;;;;;4994591;28;20033;-86
2021/10/19 00:23:48;;;;;;;0.40;0.30;;;;;;;;;;5015350;28;20022;-85
2021/10/19 00:26:13;;;;;;;0.47;0.47;;;;;;;;;;5029250;28;20025;-85
2021/10/19 00:28:39;;;;;;;0.25;0.25;;;;;;;;;;5013853;28;20355;-86
2021/10/19 00:31:04;;;;;;;0.82;0.80;;;;;;;;;;5013762;28;20030;-86
2021/10/19 00:33:29;;;;;;;0.20;0.20;;;;;;;;;;5013814;28;20065;-85
2021/10/19 00:35:55;;;;;;;0.15;0.15;;;;;;;;;;5013734;28;20097;-86
2021/10/19 00:38:20;;;;;;;1.38;0.82;;;;;;;;;;5013101;28;20477;-86
2021/10/19 00:40:45;;;;;;;0.30;0.30;;;;;;;;;;5013282;28;20080;-86
2021/10/19 00:43:10;;;;;;;0.45;0.40;;;;;;;;;;5013707;28;20018;-86
2021/10/19 00:45:36;;;;;;;0.43;0.40;;;;;;;;;;5013516;28;20497;-87
2021/10/19 00:48:04;;;;;;;0.60;0.52;;;;;;;;;;5013282;28;20041;-87
2021/10/19 00:50:30;;;;;;;1.45;1.35;;;;;;;;;;5013608;28;20382;-86
2021/10/19 00:52:56;;;;;;;0.10;0.10;;;;;;;;;;5013450;28;20041;-86
2021/10/19 00:55:21;;;;;;;0.50;0.50;;;;;;;;;;5013284;28;20038;-86
2021/10/19 00:57:47;;;;;;;0.35;0.30;;;;;;;;;;5013444;28;20030;-86
2021/10/19 01:00:12;;;;;;;1.17;0.65;;;;;;;;;;5013900;28;20057;-86
2021/10/19 01:02:41;;;;;;;1.35;1.05;;;;;;;;;;5013136;28;20040;-85
2021/10/19 01:05:06;;;;;;;0.70;0.68;;;;;;;;;;5013456;28;20032;-86
2021/10/19 01:07:32;;;;;;;0.20;0.20;;;;;;;;;;5013502;28;20108;-86
2021/10/19 01:09:57;;;;;;;1.02;0.98;;;;;;;;;;5013363;28;20425;-87
2021/10/19 01:12:23;;;;;;;0.20;0.20;;;;;;;;;;5013383;28;20044;-86
2021/10/19 01:14:48;;;;;;;1.05;0.95;;;;;;;;;;5013299;28;20140;-86
2021/10/19 01:17:14;;;;;;;0.93;0.85;;;;;;;;;;5013358;28;20064;-85
2021/10/19 01:19:39;;;;;;;0.45;0.40;;;;;;;;;;5013121;28;20079;-87
2021/10/19 01:22:05;;;;;;;0.40;0.40;;;;;;;;;;5013257;28;20053;-86
2021/10/19 01:24:31;;;;;;;0.77;0.77;;;;;;;;;;5013416;28;20083;-86
2021/10/19 01:26:56;;;;;;;1.83;0.90;;;;;;;;;;5013220;28;20335;-86
2021/10/19 01:29:21;;;;;;;3.00;1.38;;;;;;;;;;5013254;28;20584;-86
2021/10/19 01:31:48;;;;;;;5.47;1.88;;;;;;;;;;5012787;28;20041;-86
2021/10/19 01:34:14;;;;;;;1.58;0.95;;;;;;;;;;5012963;28;20413;-86
2021/10/19 01:36:39;;;;;;;0.75;0.52;;;;;;;;;;5013265;28;20050;-87
2021/10/19 01:39:06;;;;;;;0.70;0.70;;;;;;;;;;5013087;28;20080;-87
2021/10/19 01:41:31;;;;;;;0.32;0.32;;;;;;;;;;5013230;28;20116;-87
2021/10/19 01:43:56;;;;;;;3.05;2.13;;;;;;;;;;5013095;28;20101;-87
2021/10/19 01:46:22;;;;;;;0.60;0.60;;;;;;;;;;5012785;28;20080;-86
2021/10/19 01:48:47;;;;;;;17.55;1.73;;;;;;;;;;5013034;28;20429;-85
2021/10/19 01:51:13;;;;;;;0.65;0.40;;;;;;;;;;5016412;28;20034;-86
2021/10/19 01:53:38;;;;;;;0.17;0.17;;;;;;;;;;5016570;28;20037;-86
2021/10/19 01:56:04;;;;;;;0.68;0.68;;;;;;;;;;5016642;28;20442;-86
2021/10/19 01:58:29;;;;;;;0.75;0.75;;;;;;;;;;5016504;28;20030;-87
2021/10/19 02:00:55;;;;;;;1.65;0.85;;;;;;;;;;5016396;28;20040;-86
2021/10/19 02:03:20;;;;;;;0.40;0.40;;;;;;;;;;5016320;28;20020;-86
2021/10/19 02:05:47;;;;;;;0.47;0.40;;;;;;;;;;5016253;28;20489;-86
2021/10/19 02:08:12;;;;;;;0.10;0.10;;;;;;;;;;5016511;28;20036;-86
2021/10/19 02:10:37;;;;;;;0.20;0.20;;;;;;;;;;5016440;28;20026;-86
2021/10/19 02:13:04;;;;;;;2.83;0.77;;;;;;;;;;5016144;28;20041;-86
2021/10/19 02:15:30;;;;;;;0.38;0.38;;;;;;;;;;5016207;28;20034;-87
2021/10/19 02:17:55;;;;;;;1.20;0.68;;;;;;;;;;5016174;28;20088;-86
2021/10/19 02:20:21;;;;;;;0.38;0.38;;;;;;;;;;5016160;28;20030;-87
2021/10/19 02:22:47;;;;;;;0.50;0.50;;;;;;;;;;5016149;28;20029;-86
2021/10/19 02:25:12;;;;;;;0.70;0.70;;;;;;;;;;5016420;28;20052;-86
2021/10/19 02:27:38;;;;;;;0.40;0.40;;;;;;;;;;5016041;28;20067;-86
2021/10/19 02:30:04;;;;;;;0.10;0.10;;;;;;;;;;5016321;28;20034;-87
2021/10/19 02:32:29;;;;;;;0.65;0.65;;;;;;;;;;5015800;28;20065;-87
2021/10/19 02:34:55;;;;;;;1.58;1.42;;;;;;;;;;5015894;28;20546;-86
2021/10/19 02:37:20;;;;;;;0.40;0.40;;;;;;;;;;5015901;28;20037;-86
2021/10/19 02:39:45;;;;;;;1.52;0.90;;;;;;;;;;5015698;28;20022;-86
2021/10/19 02:42:10;;;;;;;0.88;0.88;;;;;;;;;;5016051;28;20032;-87
2021/10/19 02:44:36;;;;;;;0.75;0.75;;;;;;;;;;5016018;28;20387;-85
2021/10/19 02:47:01;;;;;;;0.88;0.80;;;;;;;;;;5015729;28;20525;-87
2021/10/19 02:49:26;;;;;;;1.08;0.50;;;;;;;;;;5015511;28;20462;-87
2021/10/19 02:51:52;;;;;;;0.63;0.63;;;;;;;;;;5015422;28;20548;-86
2021/10/19 02:54:17;;;;;;;2.33;0.88;;;;;;;;;;5015259;28;20022;-86
2021/10/19 02:56:42;;;;;;;0.38;0.38;;;;;;;;;;5015536;28;20026;-86
2021/10/19 02:59:07;;;;;;;0.10;0.10;;;;;;;;;;5015425;28;20033;-86
2021/10/19 03:01:33;;;;;;;1.05;1.00;;;;;;;;;;5014656;28;20037;-86
2021/10/19 03:03:58;;;;;;;1.45;1.35;;;;;;;;;;5015290;28;20112;-86
2021/10/19 03:06:23;;;;;;;0.20;0.15;;;;;;;;;;5015382;28;20119;-86
2021/10/19 03:08:48;;;;;;;1.25;1.15;;;;;;;;;;5014971;28;20033;-86
2021/10/19 03:11:14;;;;;;;0.20;0.20;;;;;;;;;;5015204;28;20025;-86
2021/10/19 03:13:39;;;;;;;2.20;1.83;;;;;;;;;;5015205;28;20038;-86
2021/10/19 03:16:04;;;;;;;1.73;0.70;;;;;;;;;;5015033;28;20075;-85
2021/10/19 03:18:30;;;;;;;3.63;1.00;;;;;;;;;;5015109;28;20381;-86
2021/10/19 03:20:55;;;;;;;0.20;0.20;;;;;;;;;;5015024;28;20034;-85
2021/10/19 03:23:21;;;;;;;0.17;0.17;;;;;;;;;;5014710;28;20030;-85
2021/10/19 03:25:46;;;;;;;0.10;0.10;;;;;;;;;;5014961;28;20109;-85
2021/10/19 03:28:11;;;;;;;1.70;0.60;;;;;;;;;;5014950;28;20061;-85
2021/10/19 03:30:36;;;;;;;0.00;0.00;;;;;;;;;;5014863;28;20025;-85
2021/10/19 03:33:02;;;;;;;1.75;0.52;;;;;;;;;;5014666;28;20034;-85
2021/10/19 03:35:28;;;;;;;0.38;0.35;;;;;;;;;;5014823;28;20037;-85
2021/10/19 03:37:56;;;;;;;0.40;0.35;;;;;;;;;;5014672;28;20022;-85
2021/10/19 03:40:21;;;;;;;0.17;0.17;;;;;;;;;;5014568;28;20473;-84
2021/10/19 03:42:48;;;;;;;0.10;0.10;;;;;;;;;;5014515;28;20038;-85
2021/10/19 03:45:13;;;;;;;0.10;0.10;;;;;;;;;;5014466;28;20045;-84
2021/10/19 03:47:39;;;;;;;0.13;0.13;;;;;;;;;;5014541;28;20030;-84
2021/10/19 03:50:04;;;;;;;0.43;0.43;;;;;;;;;;5014497;28;20120;-84
2021/10/19 03:52:29;;;;;;;0.17;0.17;;;;;;;;;;5014386;28;20454;-84
2021/10/19 03:54:55;;;;;;;0.45;0.45;;;;;;;;;;5014394;28;20487;-84
2021/10/19 03:57:20;;;;;;;0.03;0.03;;;;;;;;;;5014378;28;20120;-84
2021/10/19 03:59:45;;;;;;;0.90;0.10;;;;;;;;;;5014423;28;20115;-84
2021/10/19 04:02:10;;;;;;;0.10;0.10;;;;;;;;;;5014570;28;20389;-85
2021/10/19 04:04:36;;;;;;;1.55;0.63;;;;;;;;;;4996543;28;20037;-84
2021/10/19 04:07:02;;;;;;;0.80;0.55;;;;;;;;;;5014206;28;20018;-84
2021/10/19 04:09:27;;;;;;;0.00;0.00;;;;;;;;;;5014180;28;20037;-85
2021/10/19 04:11:52;;;;;;;0.17;0.17;;;;;;;;;;5013313;28;20034;-84
2021/10/19 04:14:18;;;;;;;0.73;0.73;;;;;;;;;;5014056;28;20036;-84
2021/10/19 04:16:43;;;;;;;0.32;0.28;;;;;;;;;;5014036;28;20037;-84
2021/10/19 04:19:08;;;;;;;0.52;0.52;;;;;;;;;;5013713;28;20037;-85
2021/10/19 04:21:33;;;;;;;0.15;0.15;;;;;;;;;;5014023;28;20026;-85
2021/10/19 04:23:59;;;;;;;0.65;0.65;;;;;;;;;;5013854;28;20457;-85
2021/10/19 04:26:24;;;;;;;0.10;0.10;;;;;;;;;;5014066;28;20037;-85
2021/10/19 04:28:49;;;;;;;0.40;0.40;;;;;;;;;;5013508;28;20018;-84
2021/10/19 04:31:14;;;;;;;0.73;0.73;;;;;;;;;;5013801;28;20089;-84
2021/10/19 04:33:40;;;;;;;0.32;0.32;;;;;;;;;;5013498;28;20045;-85
2021/10/19 04:36:06;;;;;;;0.03;0.03;;;;;;;;;;5013820;28;20026;-85
2021/10/19 04:38:32;;;;;;;0.52;0.52;;;;;;;;;;5013816;28;20485;-84
2021/10/19 04:40:57;;;;;;;0.08;0.08;;;;;;;;;;5013626;28;20121;-85
2021/10/19 04:43:22;;;;;;;0.30;0.30;;;;;;;;;;5013581;28;20506;-84
2021/10/19 04:45:48;;;;;;;0.00;0.00;;;;;;;;;;5013524;28;20049;-83
2021/10/19 04:48:14;;;;;;;0.40;0.40;;;;;;;;;;5013705;28;20034;-84
2021/10/19 04:50:40;;;;;;;0.20;0.20;;;;;;;;;;5013640;28;20069;-83
2021/10/19 04:53:05;;;;;;;1.25;0.68;;;;;;;;;;5013609;28;20042;-84
2021/10/19 04:55:30;;;;;;;0.20;0.20;;;;;;;;;;5013539;28;20458;-84
2021/10/19 04:57:56;;;;;;;0.47;0.47;;;;;;;;;;5013434;28;20026;-83
2021/10/19 05:00:21;;;;;;;1.17;0.95;;;;;;;;;;5013510;28;20030;-84
2021/10/19 05:02:47;;;;;;;0.10;0.10;;;;;;;;;;5013516;28;20474;-84
2021/10/19 05:05:13;;;;;;;0.00;0.00;;;;;;;;;;5013558;28;20381;-84
2021/10/19 05:07:38;;;;;;;0.20;0.20;;;;;;;;;;5013282;28;20037;-84
2021/10/19 05:10:04;;;;;;;0.32;0.32;;;;;;;;;;5013466;28;20034;-84
2021/10/19 05:12:29;;;;;;;0.00;0.00;;;;;;;;;;5013364;28;20036;-84
2021/10/19 05:14:57;;;;;;;0.00;0.00;;;;;;;;;;5013039;28;20030;-85
2021/10/19 05:17:22;;;;;;;1.05;0.82;;;;;;;;;;5013363;28;20042;-84
2021/10/19 05:19:47;;;;;;;0.32;0.32;;;;;;;;;;5013322;28;20041;-85
2021/10/19 05:22:13;;;;;;;1.05;0.70;;;;;;;;;;5013281;28;20029;-85
2021/10/19 05:24:38;;;;;;;0.43;0.43;;;;;;;;;;5016476;28;20470;-85
2021/10/19 05:27:03;;;;;;;1.98;0.30;;;;;;;;;;5017195;28;20022;-84
2021/10/19 05:29:30;;;;;;;0.00;0.00;;;;;;;;;;5016722;28;20057;-84
2021/10/19 05:31:56;;;;;;;0.00;0.00;;;;;;;;;;5016854;28;20030;-85
2021/10/19 05:34:21;;;;;;;0.45;0.45;;;;;;;;;;4999518;28;20026;-84
2021/10/19 05:36:46;;;;;;;0.38;0.38;;;;;;;;;;5016980;28;20474;-84
2021/10/19 05:39:15;;;;;;;0.17;0.17;;;;;;;;;;5017014;28;20053;-84
2021/10/19 05:41:40;;;;;;;0.73;0.73;;;;;;;;;;5016545;28;20485;-84
2021/10/19 05:44:07;;;;;;;0.22;0.22;;;;;;;;;;5016750;28;20499;-85
2021/10/19 05:46:32;;;;;;;0.85;0.57;;;;;;;;;;5016430;28;20494;-84
2021/10/19 05:48:57;;;;;;;0.00;0.00;;;;;;;;;;5016771;28;20029;-84
2021/10/19 05:51:23;;;;;;;0.52;0.22;;;;;;;;;;5016658;28;20526;-83
2021/10/19 05:53:48;;;;;;;0.05;0.05;;;;;;;;;;5016566;28;20041;-83
2021/10/19 05:56:13;;;;;;;0.30;0.30;;;;;;;;;;4999145;28;20084;-83
2021/10/19 05:58:39;;;;;;;0.00;0.00;;;;;;;;;;5016571;28;20534;-82
2021/10/19 06:01:04;;;;;;;0.00;0.00;;;;;;;;;;5016548;28;20040;-83
2021/10/19 06:03:29;;;;;;;0.00;0.00;;;;;;;;;;5016537;28;20058;-83
2021/10/19 06:05:56;;;;;;;0.00;0.00;;;;;;;;;;5016350;28;20030;-83
2021/10/19 06:08:21;;;;;;;0.10;0.10;;;;;;;;;;5016400;28;20042;-83
2021/10/19 06:10:46;;;;;;;0.20;0.20;;;;;;;;;;5016449;28;20021;-82
2021/10/19 06:13:11;;;;;;;0.25;0.20;;;;;;;;;;5016242;28;20046;-84
2021/10/19 06:15:37;;;;;;;0.00;0.00;;;;;;;;;;5016080;28;20046;-82
2021/10/19 06:18:04;;;;;;;0.65;0.65;;;;;;;;;;5016166;28;20026;-84
2021/10/19 06:20:29;;;;;;;0.00;0.00;;;;;;;;;;5016252;28;20030;-83
2021/10/19 06:22:54;;;;;;;0.10;0.10;;;;;;;;;;5016069;28;20097;-83
2021/10/19 06:25:19;;;;;;;0.00;0.00;;;;;;;;;;5016108;28;20066;-84
2021/10/19 06:27:45;;;;;;;0.22;0.20;;;;;;;;;;5008731;28;20466;-83
2021/10/19 06:30:10;;;;;;;0.08;0.08;;;;;;;;;;5004908;28;20395;-83
2021/10/19 06:32:37;;;;;;;0.00;0.00;;;;;;;;;;5005218;28;20038;-84
2021/10/19 06:35:03;;;;;;;0.00;0.00;;;;;;;;;;5008636;28;20463;-84
2021/10/19 06:37:28;;;;;;;0.38;0.32;;;;;;;;;;5015866;28;20109;-84
2021/10/19 06:39:53;;;;;;;0.65;0.52;;;;;;;;;;5010074;28;20018;-84
2021/10/19 06:42:19;;;;;;;0.05;0.05;;;;;;;;;;5006646;28;20032;-84
2021/10/19 06:44:44;;;;;;;0.43;0.43;;;;;;;;;;5005018;28;20356;-84
2021/10/19 06:47:09;;;;;;;0.00;0.00;;;;;;;;;;5006831;28;20045;-84
2021/10/19 06:49:34;;;;;;;0.00;0.00;;;;;;;;;;5004583;28;20435;-84
2021/10/19 06:52:00;;;;;;;0.73;0.73;;;;;;;;;;5006871;28;20026;-85
2021/10/19 06:54:25;;;;;;;0.10;0.10;;;;;;;;;;5004421;28;20476;-85
2021/10/19 06:56:50;;;;;;;0.80;0.68;;;;;;;;;;5004633;28;20033;-85
2021/10/19 06:59:15;;;;;;;0.20;0.10;;;;;;;;;;5000894;28;20030;-85
2021/10/19 07:01:41;;;;;;;0.38;0.38;;;;;;;;;;4998444;28;20397;-84
2021/10/19 07:04:06;;;;;;;0.10;0.10;;;;;;;;;;5005174;28;20066;-85
2021/10/19 07:06:31;;;;;;;0.80;0.57;;;;;;;;;;5004362;28;20386;-85
2021/10/19 07:08:57;;;;;;;2.85;0.73;;;;;;;;;;5014854;28;20040;-85
2021/10/19 07:11:26;;;;;;;0.00;0.00;;;;;;;;;;5015116;28;20026;-84
2021/10/19 07:13:51;;;;;;;2.92;0.80;;;;;;;;;;5004837;28;20044;-84
2021/10/19 07:16:17;;;;;;;0.52;0.52;;;;;;;;;;5004984;28;20014;-84
2021/10/19 07:18:42;;;;;;;1.55;0.52;;;;;;;;;;5004066;28;20433;-85
2021/10/19 07:21:07;;;;;;;3.83;0.73;;;;;;;;;;5005668;28;20097;-85
2021/10/19 07:23:32;;;;;;;0.28;0.28;;;;;;;;;;5004715;28;20019;-85
2021/10/19 07:25:58;;;;;;;0.93;0.52;;;;;;;;;;5001709;28;20030;-86
2021/10/19 07:28:23;;;;;;;0.70;0.70;;;;;;;;;;5017614;28;20057;-85
2021/10/19 07:30:48;;;;;;;0.05;0.05;;;;;;;;;;5034626;28;20454;-85
2021/10/19 07:33:13;;;;;;;0.75;0.65;;;;;;;;;;5014663;28;20063;-84
2021/10/19 07:35:39;;;;;;;0.55;0.55;;;;;;;;;;5033609;28;20098;-85
2021/10/19 07:38:04;;;;;;;0.57;0.52;;;;;;;;;;5033804;28;20029;-85
2021/10/19 07:40:30;;;;;;;0.88;0.88;;;;;;;;;;5032556;28;20037;-85
2021/10/19 07:42:56;;;;;;;0.82;0.60;;;;;;;;;;5033331;28;20042;-85
2021/10/19 07:45:23;;;;;;;0.25;0.25;;;;;;;;;;5032967;28;20054;-84
2021/10/19 07:47:48;;;;;;;1.85;0.77;;;;;;;;;;5032830;28;20469;-84
2021/10/19 07:50:15;;;;;;;0.43;0.43;;;;;;;;;;5015326;28;20037;-85
2021/10/19 07:52:42;;;;;;;0.50;0.50;;;;;;;;;;5033062;28;20040;-84
2021/10/19 07:55:08;;;;;;;0.63;0.60;;;;;;;;;;5032427;28;20104;-84
2021/10/19 07:57:41;;;;;;;11.68;3.85;;;;;;;;;;5033334;28;20474;-86
2021/10/19 08:00:06;;;;;;;0.43;0.40;;;;;;;;;;5027134;28;20061;-85
2021/10/19 08:02:32;;;;;;;2.65;2.30;;;;;;;;;;5030102;28;20049;-81
2021/10/19 08:04:57;;;;;;;0.98;0.80;;;;;;;;;;5029490;28;20041;-86
2021/10/19 08:07:23;;;;;;;2.13;0.95;;;;;;;;;;5029971;28;20029;-86
2021/10/19 08:09:48;;;;;;;1.63;1.52;;;;;;;;;;5028625;28;20083;-84
2021/10/19 08:12:14;;;;;;;0.45;0.45;;;;;;;;;;5029381;28;20064;-84
2021/10/19 08:14:39;;;;;;;0.60;0.55;;;;;;;;;;5019260;28;20026;-85
2021/10/19 08:17:04;;;;;;;5.00;2.53;;;;;;;;;;5011188;28;20029;-84
2021/10/19 08:19:30;;;;;;;1.00;0.82;;;;;;;;;;5010792;28;20568;-85
2021/10/19 08:21:55;;;;;;;3.25;1.73;;;;;;;;;;5010543;28;20029;-85
2021/10/19 08:24:21;;;;;;;0.63;0.63;;;;;;;;;;5010393;28;20398;-83
2021/10/19 08:26:46;;;;;;;3.83;2.05;;;;;;;;;;5010441;28;20107;-84
2021/10/19 08:29:11;;;;;;;0.47;0.30;;;;;;;;;;5003877;28;20030;-84
2021/10/19 08:31:37;;;;;;;1.52;1.42;;;;;;;;;;5010087;28;20021;-85
2021/10/19 08:34:02;;;;;;;0.55;0.55;;;;;;;;;;4995275;28;20470;-85
2021/10/19 08:36:27;;;;;;;16.55;1.65;;;;;;;;;;4990456;28;20026;-85
2021/10/19 08:38:53;;;;;;;2.92;1.77;;;;;;;;;;4989840;28;20030;-84
2021/10/19 08:41:18;;;;;;;1.70;1.58;;;;;;;;;;4990983;28;20034;-85
2021/10/19 08:43:44;;;;;;;3.55;1.95;;;;;;;;;;4991649;28;20026;-86
2021/10/19 08:46:10;;;;;;;4.05;1.90;;;;;;;;;;4990644;28;20453;-84
2021/10/19 08:48:36;;;;;;;2.00;1.27;;;;;;;;;;4990962;28;20177;-84
2021/10/19 08:51:01;;;;;;;0.95;0.75;;;;;;;;;;4991133;28;20041;-86
2021/10/19 08:53:27;;;;;;;0.75;0.73;;;;;;;;;;4991130;28;20046;-85
2021/10/19 08:55:52;;;;;;;1.80;1.10;;;;;;;;;;4990736;28;20453;-85
2021/10/19 08:58:17;;;;;;;1.67;1.58;;;;;;;;;;4992876;28;20041;-84
2021/10/19 09:00:43;;;;;;;5.22;1.30;;;;;;;;;;4997624;28;20114;-85
2021/10/19 09:03:08;;;;;;;2.88;2.60;;;;;;;;;;4997239;28;20058;-85
2021/10/19 09:05:34;;;;;;;0.52;0.52;;;;;;;;;;5001871;28;20022;-84
2021/10/19 09:08:04;;;;;;;3.72;1.65;;;;;;;;;;5007536;28;20366;-85
2021/10/19 09:10:34;;;;;;;1.83;1.67;;;;;;;;;;5005630;28;20026;-86
2021/10/19 09:13:00;;;;;;;3.17;2.25;;;;;;;;;;5003166;28;20069;-85
2021/10/19 09:15:31;;;;;;;2.83;1.10;;;;;;;;;;4992896;28;20038;-87
2021/10/19 09:18:00;;;;;;;0.80;0.80;;;;;;;;;;4992687;28;20026;-86
2021/10/19 09:20:26;;;;;;;1.75;1.65;;;;;;;;;;4996247;28;20034;-86
2021/10/19 09:22:52;;;;;;;1.83;1.73;;;;;;;;;;4996765;28;20031;-85
2021/10/19 09:25:24;;;;;;;2.65;1.05;;;;;;;;;;4996963;28;20025;-85
2021/10/19 09:27:51;;;;;;;15.65;2.80;;;;;;;;;;4996468;28;20034;-86
2021/10/19 09:30:17;;;;;;;2.55;2.10;;;;;;;;;;4996203;28;20070;-86
2021/10/19 09:32:49;;;;;;;1.95;1.60;;;;;;;;;;4997231;28;20069;-85
2021/10/19 09:35:21;;;;;;;0.82;0.82;;;;;;;;;;4996884;28;20026;-86
2021/10/19 09:37:59;;;;;;;8.43;4.10;;;;;;;;;;4996829;28;20089;-85
2021/10/19 09:40:29;;;;;;;2.20;1.85;;;;;;;;;;4995917;28;20042;-85
2021/10/19 09:43:01;;;;;;;5.53;3.40;;;;;;;;;;4996899;28;20040;-85
2021/10/19 09:45:27;;;;;;;5.43;3.47;;;;;;;;;;4996759;28;20517;-86
2021/10/19 09:47:55;;;;;;;1.23;1.17;;;;;;;;;;4978848;28;20054;-86
2021/10/19 09:50:20;;;;;;;0.75;0.75;;;;;;;;;;4996099;28;20084;-85
2021/10/19 09:52:46;;;;;;;3.10;1.63;;;;;;;;;;4996233;28;20034;-86
2021/10/19 09:55:12;;;;;;;2.97;2.17;;;;;;;;;;4995997;28;20065;-86
2021/10/19 09:57:38;;;;;;;2.55;1.27;;;;;;;;;;4996067;28;20034;-87
2021/10/19 10:00:04;;;;;;;6.82;1.50;;;;;;;;;;4995833;28;20414;-86
2021/10/19 10:02:30;;;;;;;2.90;2.70;;;;;;;;;;5005598;28;20038;-82
2021/10/19 10:04:55;;;;;;;6.55;3.67;;;;;;;;;;5014114;28;20149;-85
2021/10/19 10:07:22;;;;;;;3.13;2.13;;;;;;;;;;5013370;28;20856;-85
2021/10/19 10:09:47;;;;;;;3.25;1.70;;;;;;;;;;5010844;28;20482;-85
2021/10/19 10:12:13;;;;;;;2.10;1.15;;;;;;;;;;5010836;28;20049;-85
2021/10/19 10:14:42;;;;;;;1.60;1.50;;;;;;;;;;5011057;28;20398;-86
2021/10/19 10:17:09;;;;;;;3.45;2.08;;;;;;;;;;5010926;28;20042;-85
2021/10/19 10:19:34;;;;;;;2.75;2.10;;;;;;;;;;5012383;28;20026;-87
2021/10/19 10:22:03;;;;;;;5.53;3.95;;;;;;;;;;5012248;28;20033;-86
2021/10/19 10:24:29;;;;;;;4.30;2.05;;;;;;;;;;5012560;28;20038;-86
2021/10/19 10:27:05;;;;;;;2.33;2.13;;;;;;;;;;5012567;28;20377;-86
2021/10/19 10:29:47;;;;;;;3.38;2.88;;;;;;;;;;5011950;28;20454;-84
2021/10/19 10:32:23;;;;;;;2.85;2.47;;;;;;;;;;5012480;28;20129;-84
2021/10/19 10:34:58;;;;;;;2.00;1.85;;;;;;;;;;5012265;28;20018;-84
2021/10/19 10:37:23;;;;;;;;;;;;;;;;;;5012758;28;20452;-84
2021/10/19 10:39:49;;;;;;;0.80;0.77;;;;;;;;;;5011763;28;19905;-83
2021/10/19 10:42:15;;;;;;;2.20;1.58;;;;;;;;;;5011922;28;20413;-84
2021/10/19 10:44:41;;;;;;;2.25;1.90;;;;;;;;;;5012024;28;20366;-83
2021/10/19 10:47:07;;;;;;;5.35;3.05;;;;;;;;;;5012530;28;20053;-84
2021/10/19 10:49:33;;;;;;;8.30;3.13;;;;;;;;;;5011757;28;20080;-84
2021/10/19 10:52:00;;;;;;;2.15;1.95;;;;;;;;;;5011381;28;20117;-84
2021/10/19 10:54:25;;;;;;;3.10;1.83;;;;;;;;;;5011469;28;20032;-84
2021/10/19 10:56:51;;;;;;;3.53;2.65;;;;;;;;;;5012373;28;20042;-83
2021/10/19 10:59:22;;;;;;;2.83;2.40;;;;;;;;;;5011235;28;20065;-84
2021/10/19 11:01:48;;;;;;;4.00;3.42;;;;;;;;;;5012157;28;20085;-83
2021/10/19 11:04:13;;;;;;;2.72;2.05;;;;;;;;;;5011066;28;20544;-82
2021/10/19 11:06:39;;;;;;;4.53;4.18;;;;;;;;;;4993881;28;20030;-84
2021/10/19 11:09:06;;;;;;;13.75;2.10;;;;;;;;;;5010905;28;20033;-83
2021/10/19 11:11:35;;;;;;;3.25;1.80;;;;;;;;;;5011745;28;20064;-82
2021/10/19 11:14:05;;;;;;;5.68;1.80;;;;;;;;;;5011289;28;20441;-83
2021/10/19 11:16:30;;;;;;;2.97;2.58;;;;;;;;;;5012246;28;20187;-83
2021/10/19 11:18:56;;;;;;;2.75;2.13;;;;;;;;;;5011431;28;20493;-83
2021/10/19 11:21:21;;;;;;;3.30;2.47;;;;;;;;;;5011000;28;20044;-83
2021/10/19 11:23:48;;;;;;;10.00;3.13;;;;;;;;;;5011014;28;20105;-83
2021/10/19 11:26:14;;;;;;;3.08;2.15;;;;;;;;;;5011154;28;20500;-83
2021/10/19 11:28:42;;;;;;;3.47;3.17;;;;;;;;;;5010635;28;20029;-82
2021/10/19 11:31:08;;;;;;;1.17;1.13;;;;;;;;;;5011248;28;20057;-83
2021/10/19 11:33:37;;;;;;;4.82;3.78;;;;;;;;;;5009406;28;20077;-83
2021/10/19 11:36:03;;;;;;;12.82;3.78;;;;;;;;;;5010893;28;20033;-83
2021/10/19 11:38:28;;;;;;;2.38;2.05;;;;;;;;;;5010411;28;20548;-84
2021/10/19 11:41:03;;;;;;;4.05;2.42;;;;;;;;;;5010045;28;20112;-83
2021/10/19 11:43:29;;;;;;;2.28;2.08;;;;;;;;;;5010188;28;20422;-83
2021/10/19 11:45:54;;;;;;;2.60;2.38;;;;;;;;;;5010430;28;20058;-83
2021/10/19 11:48:19;;;;;;;3.28;2.10;;;;;;;;;;5010842;28;20054;-82
2021/10/19 11:50:45;;;;;;;2.35;2.15;;;;;;;;;;5010939;28;20026;-84
2021/10/19 11:53:10;;;;;;;4.38;3.30;;;;;;;;;;5009756;28;20100;-82
2021/10/19 11:55:36;;;;;;;5.78;3.85;;;;;;;;;;5010204;28;20513;-83
2021/10/19 11:58:04;;;;;;;7.00;4.00;;;;;;;;;;5010971;28;20480;-84
2021/10/19 12:00:31;;;;;;;7.82;4.97;;;;;;;;;;5009958;28;20054;-83
2021/10/19 12:02:57;;;;;;;1.35;1.25;;;;;;;;;;5010092;28;20028;-82
2021/10/19 12:05:23;;;;;;;3.92;3.63;;;;;;;;;;5009795;28;20076;-83
2021/10/19 12:07:50;;;;;;;1.70;1.52;;;;;;;;;;5009893;28;20473;-82
2021/10/19 12:10:16;;;;;;;3.72;3.38;;;;;;;;;;5009555;28;20021;-83
2021/10/19 12:13:11;;;;;;;2.45;2.22;;;;;;;;;;5008968;28;20061;-84
2021/10/19 12:15:37;;;;;;;2.13;1.90;;;;;;;;;;5015739;28;20073;-84
2021/10/19 12:18:04;;;;;;;5.22;2.85;;;;;;;;;;5029223;28;20075;-82
2021/10/19 12:20:31;;;;;;;3.60;3.30;;;;;;;;;;5030141;28;20030;-83
2021/10/19 12:22:57;;;;;;;7.60;3.33;;;;;;;;;;5011890;28;20370;-83
2021/10/19 12:25:22;;;;;;;5.15;2.53;;;;;;;;;;5028777;28;20487;-83
2021/10/19 12:27:48;;;;;;;2.08;1.90;;;;;;;;;;5029523;28;20157;-83
2021/10/19 12:30:14;;;;;;;1.60;1.42;;;;;;;;;;5029539;28;20381;-84
2021/10/19 12:32:40;;;;;;;2.47;2.17;;;;;;;;;;5028651;28;20037;-83
2021/10/19 12:35:06;;;;;;;2.38;1.95;;;;;;;;;;5030131;28;20476;-85
2021/10/19 12:37:32;;;;;;;6.38;3.13;;;;;;;;;;5028606;28;20033;-83
2021/10/19 12:39:59;;;;;;;4.03;3.67;;;;;;;;;;5028173;28;20827;-84
2021/10/19 12:42:24;;;;;;;4.60;2.75;;;;;;;;;;5027738;28;20119;-84
2021/10/19 12:44:49;;;;;;;1.63;1.40;;;;;;;;;;5028606;28;20053;-84
2021/10/19 12:47:16;;;;;;;3.55;2.20;;;;;;;;;;5028622;28;20033;-83
2021/10/19 12:49:41;;;;;;;2.88;1.83;;;;;;;;;;5029943;28;20131;-85
2021/10/19 12:52:06;;;;;;;1.83;1.65;;;;;;;;;;5029382;28;20492;-85
2021/10/19 12:54:32;;;;;;;9.40;2.90;;;;;;;;;;5029434;28;20448;-84
2021/10/19 12:56:57;;;;;;;3.92;2.75;;;;;;;;;;5011453;28;20037;-85
2021/10/19 12:59:23;;;;;;;3.60;2.90;;;;;;;;;;5029208;28;20100;-85
2021/10/19 13:01:49;;;;;;;3.13;2.17;;;;;;;;;;5027311;28;20033;-86
2021/10/19 13:04:14;;;;;;;2.78;1.77;;;;;;;;;;5010529;28;20048;-84
2021/10/19 13:06:40;;;;;;;2.58;2.38;;;;;;;;;;5028681;28;20122;-85
2021/10/19 13:09:06;;;;;;;3.97;1.70;;;;;;;;;;5029253;28;20030;-85
2021/10/19 13:11:31;;;;;;;3.70;3.20;;;;;;;;;;5029033;28;20042;-86
2021/10/19 13:13:57;;;;;;;1.85;1.70;;;;;;;;;;5028874;28;20107;-85
2021/10/19 13:16:22;;;;;;;10.75;3.22;;;;;;;;;;5030076;28;20033;-86
2021/10/19 13:18:48;;;;;;;11.65;3.63;;;;;;;;;;5029386;28;20073;-86
2021/10/19 13:21:14;;;;;;;3.65;3.28;;;;;;;;;;5028703;28;20867;-85
2021/10/19 13:23:40;;;;;;;1.80;1.70;;;;;;;;;;5029774;28;20032;-86
2021/10/19 13:26:06;;;;;;;2.35;1.30;;;;;;;;;;5029499;28;20026;-85
2021/10/19 13:28:31;;;;;;;4.63;3.35;;;;;;;;;;5028485;28;20151;-85
2021/10/19 13:30:57;;;;;;;4.10;3.50;;;;;;;;;;5028921;28;20037;-83
2021/10/19 13:33:22;;;;;;;1.92;1.45;;;;;;;;;;5029559;28;20543;-85
2021/10/19 13:35:48;;;;;;;4.88;3.10;;;;;;;;;;5029217;28;20505;-85
2021/10/19 13:38:14;;;;;;;0.98;0.98;;;;;;;;;;5028808;28;20025;-85
2021/10/19 13:40:39;;;;;;;1.67;1.52;;;;;;;;;;5028949;28;20041;-85
2021/10/19 13:43:05;;;;;;;3.63;2.35;;;;;;;;;;5028500;28;20489;-85
2021/10/19 13:45:31;;;;;;;1.00;0.98;;;;;;;;;;5031165;28;20053;-84
2021/10/19 13:47:56;;;;;;;1.95;1.80;;;;;;;;;;5033055;28;20033;-85
2021/10/19 13:50:21;;;;;;;2.55;2.28;;;;;;;;;;5032717;28;20076;-84
2021/10/19 13:52:47;;;;;;;1.80;1.70;;;;;;;;;;5032139;28;20077;-84
2021/10/19 13:55:12;;;;;;;6.25;2.67;;;;;;;;;;5032336;28;20036;-84
2021/10/19 13:57:38;;;;;;;0.60;0.60;;;;;;;;;;5033072;28;20025;-84
2021/10/19 14:00:05;;;;;;;2.42;1.23;;;;;;;;;;5032319;28;20402;-83
2021/10/19 14:02:31;;;;;;;2.05;1.83;;;;;;;;;;5033051;28;20064;-84
2021/10/19 14:04:56;;;;;;;4.72;1.60;;;;;;;;;;5032299;28;20531;-83
2021/10/19 14:07:21;;;;;;;6.30;2.95;;;;;;;;;;5032420;28;20433;-85
2021/10/19 14:09:47;;;;;;;2.50;1.77;;;;;;;;;;5032023;28;20038;-85
2021/10/19 14:12:12;;;;;;;16.05;2.55;;;;;;;;;;5032254;28;20036;-84
2021/10/19 14:14:37;;;;;;;1.60;1.48;;;;;;;;;;5032857;28;20069;-84
2021/10/19 14:17:03;;;;;;;1.65;1.55;;;;;;;;;;5032044;28;20116;-85
2021/10/19 14:19:29;;;;;;;3.97;2.60;;;;;;;;;;5031742;28;20071;-85
2021/10/19 14:21:54;;;;;;;6.75;3.85;;;;;;;;;;5032187;28;20029;-86
2021/10/19 14:24:19;;;;;;;2.88;2.00;;;;;;;;;;5032591;28;20430;-85
2021/10/19 14:26:45;;;;;;;2.42;2.22;;;;;;;;;;5031952;28;20377;-85
2021/10/19 14:29:10;;;;;;;1.42;1.33;;;;;;;;;;5032173;28;20061;-85
2021/10/19 14:31:36;;;;;;;3.85;2.67;;;;;;;;;;5031690;28;20470;-85
2021/10/19 14:34:01;;;;;;;4.93;3.17;;;;;;;;;;5031638;28;20104;-85
2021/10/19 14:36:26;;;;;;;3.50;2.40;;;;;;;;;;5031730;28;20035;-85